sensor_id;sensor_type;location;lat;lon;timestamp;temperature;humidity
19060;DHT22;9663;48.996;8.334;2023-03-01T00:01:31;2.70;54.00
19060;DHT22;9663;48.996;8.334;2023-03-01T00:03:58;2.80;54.10
19060;DHT22;9663;48.996;8.334;2023-03-01T00:06:25;2.70;54.00
19060;DHT22;9663;48.996;8.334;2023-03-01T00:08:51;2.80;54.20
19060;DHT22;9663;48.996;8.334;2023-03-01T00:11:29;3.60;54.00
19060;DHT22;9663;48.996;8.334;2023-03-01T00:13:58;2.70;54.20
19060;DHT22;9663;48.996;8.334;2023-03-01T00:16:32;2.50;54.20
19060;DHT22;9663;48.996;8.334;2023-03-01T00:19:00;2.30;53.50
19060;DHT22;9663;48.996;8.334;2023-03-01T00:21:26;2.80;54.60
19060;DHT22;9663;48.996;8.334;2023-03-01T00:23:53;3.30;54.70
19060;DHT22;9663;48.996;8.334;2023-03-01T00:26:21;2.40;54.20
19060;DHT22;9663;48.996;8.334;2023-03-01T00:28:51;3.00;54.50
19060;DHT22;9663;48.996;8.334;2023-03-01T00:31:20;2.20;53.20
19060;DHT22;9663;48.996;8.334;2023-03-01T00:33:52;2.50;54.40
19060;DHT22;9663;48.996;8.334;2023-03-01T00:36:23;2.50;54.40
19060;DHT22;9663;48.996;8.334;2023-03-01T00:38:51;3.10;54.80
19060;DHT22;9663;48.996;8.334;2023-03-01T00:41:19;2.90;54.70
19060;DHT22;9663;48.996;8.334;2023-03-01T00:43:46;2.80;54.60
19060;DHT22;9663;48.996;8.334;2023-03-01T00:46:17;2.80;54.70
19060;DHT22;9663;48.996;8.334;2023-03-01T00:48:45;2.60;54.80
19060;DHT22;9663;48.996;8.334;2023-03-01T00:51:14;3.10;55.00
19060;DHT22;9663;48.996;8.334;2023-03-01T00:53:50;2.40;54.70
19060;DHT22;9663;48.996;8.334;2023-03-01T00:56:17;2.40;54.80
19060;DHT22;9663;48.996;8.334;2023-03-01T00:58:43;2.60;54.90
19060;DHT22;9663;48.996;8.334;2023-03-01T01:01:11;2.30;54.70
19060;DHT22;9663;48.996;8.334;2023-03-01T01:03:50;3.10;55.00
19060;DHT22;9663;48.996;8.334;2023-03-01T01:06:19;2.80;55.00
19060;DHT22;9663;48.996;8.334;2023-03-01T01:08:51;3.10;55.20
19060;DHT22;9663;48.996;8.334;2023-03-01T01:11:18;2.20;54.80
19060;DHT22;9663;48.996;8.334;2023-03-01T01:13:46;2.30;55.00
19060;DHT22;9663;48.996;8.334;2023-03-01T01:16:13;2.40;55.00
19060;DHT22;9663;48.996;8.334;2023-03-01T01:18:40;2.30;54.80
19060;DHT22;9663;48.996;8.334;2023-03-01T01:21:14;2.00;54.90
19060;DHT22;9663;48.996;8.334;2023-03-01T01:23:44;2.40;55.00
19060;DHT22;9663;48.996;8.334;2023-03-01T01:26:17;2.40;55.10
19060;DHT22;9663;48.996;8.334;2023-03-01T01:28:47;3.20;55.30
19060;DHT22;9663;48.996;8.334;2023-03-01T01:31:13;3.00;55.40
19060;DHT22;9663;48.996;8.334;2023-03-01T01:33:39;2.60;55.30
19060;DHT22;9663;48.996;8.334;2023-03-01T01:36:06;2.00;54.80
19060;DHT22;9663;48.996;8.334;2023-03-01T01:38:34;1.80;54.70
19060;DHT22;9663;48.996;8.334;2023-03-01T01:41:00;3.00;55.50
19060;DHT22;9663;48.996;8.334;2023-03-01T01:43:29;2.50;55.40
19060;DHT22;9663;48.996;8.334;2023-03-01T01:46:04;2.20;55.20
19060;DHT22;9663;48.996;8.334;2023-03-01T01:48:43;2.20;55.80
19060;DHT22;9663;48.996;8.334;2023-03-01T01:51:16;2.10;55.30
19060;DHT22;9663;48.996;8.334;2023-03-01T01:53:47;2.20;55.20
19060;DHT22;9663;48.996;8.334;2023-03-01T01:56:18;2.60;55.40
19060;DHT22;9663;48.996;8.334;2023-03-01T01:58:46;2.10;55.10
19060;DHT22;9663;48.996;8.334;2023-03-01T02:01:13;2.70;55.50
19060;DHT22;9663;48.996;8.334;2023-03-01T02:03:40;2.40;55.40
19060;DHT22;9663;48.996;8.334;2023-03-01T02:09:00;2.40;55.20
19060;DHT22;9663;48.996;8.334;2023-03-01T02:11:31;2.30;55.50
19060;DHT22;9663;48.996;8.334;2023-03-01T02:13:58;2.60;55.70
19060;DHT22;9663;48.996;8.334;2023-03-01T02:16:25;2.50;55.70
19060;DHT22;9663;48.996;8.334;2023-03-01T02:18:52;2.50;55.60
19060;DHT22;9663;48.996;8.334;2023-03-01T02:21:38;2.50;55.80
19060;DHT22;9663;48.996;8.334;2023-03-01T02:24:44;2.20;55.60
19060;DHT22;9663;48.996;8.334;2023-03-01T02:27:28;2.80;55.80
19060;DHT22;9663;48.996;8.334;2023-03-01T02:30:02;2.30;55.60
19060;DHT22;9663;48.996;8.334;2023-03-01T02:32:28;2.40;55.60
19060;DHT22;9663;48.996;8.334;2023-03-01T02:34:55;2.30;55.60
19060;DHT22;9663;48.996;8.334;2023-03-01T02:37:22;2.30;55.70
19060;DHT22;9663;48.996;8.334;2023-03-01T02:39:58;2.10;55.80
19060;DHT22;9663;48.996;8.334;2023-03-01T02:42:35;2.30;55.50
19060;DHT22;9663;48.996;8.334;2023-03-01T02:45:05;2.40;55.80
19060;DHT22;9663;48.996;8.334;2023-03-01T02:47:31;2.30;55.40
19060;DHT22;9663;48.996;8.334;2023-03-01T02:49:57;2.00;56.00
19060;DHT22;9663;48.996;8.334;2023-03-01T02:52:45;2.30;56.00
19060;DHT22;9663;48.996;8.334;2023-03-01T02:55:18;1.70;54.80
19060;DHT22;9663;48.996;8.334;2023-03-01T02:57:47;1.90;55.80
19060;DHT22;9663;48.996;8.334;2023-03-01T03:00:23;2.20;56.10
19060;DHT22;9663;48.996;8.334;2023-03-01T03:02:53;2.00;55.80
19060;DHT22;9663;48.996;8.334;2023-03-01T03:05:22;2.20;56.00
19060;DHT22;9663;48.996;8.334;2023-03-01T03:07:50;1.90;56.10
19060;DHT22;9663;48.996;8.334;2023-03-01T03:10:20;2.00;56.00
19060;DHT22;9663;48.996;8.334;2023-03-01T03:12:52;2.20;56.00
19060;DHT22;9663;48.996;8.334;2023-03-01T03:15:24;2.10;56.00
19060;DHT22;9663;48.996;8.334;2023-03-01T03:17:52;2.10;56.70
19060;DHT22;9663;48.996;8.334;2023-03-01T03:20:20;2.20;56.10
19060;DHT22;9663;48.996;8.334;2023-03-01T03:22:50;1.80;56.60
19060;DHT22;9663;48.996;8.334;2023-03-01T03:25:18;1.90;56.10
19060;DHT22;9663;48.996;8.334;2023-03-01T03:27:46;2.70;56.40
19060;DHT22;9663;48.996;8.334;2023-03-01T03:30:17;2.60;56.50
19060;DHT22;9663;48.996;8.334;2023-03-01T03:32:45;2.10;56.20
19060;DHT22;9663;48.996;8.334;2023-03-01T03:35:31;2.40;56.30
19060;DHT22;9663;48.996;8.334;2023-03-01T03:38:01;2.00;55.10
19060;DHT22;9663;48.996;8.334;2023-03-01T03:40:38;1.90;56.10
19060;DHT22;9663;48.996;8.334;2023-03-01T03:43:07;0.60;54.30
19060;DHT22;9663;48.996;8.334;2023-03-01T03:45:36;2.20;56.30
19060;DHT22;9663;48.996;8.334;2023-03-01T03:48:04;2.40;56.50
19060;DHT22;9663;48.996;8.334;2023-03-01T03:50:32;2.30;56.30
19060;DHT22;9663;48.996;8.334;2023-03-01T03:53:00;3.00;56.90
19060;DHT22;9663;48.996;8.334;2023-03-01T03:55:27;2.00;56.30
19060;DHT22;9663;48.996;8.334;2023-03-01T03:57:57;2.00;56.40
19060;DHT22;9663;48.996;8.334;2023-03-01T04:00:27;1.50;55.60
19060;DHT22;9663;48.996;8.334;2023-03-01T04:02:53;0.80;55.90
19060;DHT22;9663;48.996;8.334;2023-03-01T04:05:24;1.90;55.70
19060;DHT22;9663;48.996;8.334;2023-03-01T04:07:50;2.20;56.60
19060;DHT22;9663;48.996;8.334;2023-03-01T04:10:27;2.20;56.70
19060;DHT22;9663;48.996;8.334;2023-03-01T04:12:57;1.80;56.50
19060;DHT22;9663;48.996;8.334;2023-03-01T04:15:24;2.30;56.80
19060;DHT22;9663;48.996;8.334;2023-03-01T04:17:52;1.40;56.40
19060;DHT22;9663;48.996;8.334;2023-03-01T04:20:24;2.30;56.40
19060;DHT22;9663;48.996;8.334;2023-03-01T04:23:07;2.30;56.70
19060;DHT22;9663;48.996;8.334;2023-03-01T04:25:57;1.60;56.30
19060;DHT22;9663;48.996;8.334;2023-03-01T04:28:31;1.80;55.50
19060;DHT22;9663;48.996;8.334;2023-03-01T04:31:11;2.30;56.70
19060;DHT22;9663;48.996;8.334;2023-03-01T04:33:52;1.70;56.50
19060;DHT22;9663;48.996;8.334;2023-03-01T04:36:22;2.00;55.70
19060;DHT22;9663;48.996;8.334;2023-03-01T04:38:50;2.00;56.70
19060;DHT22;9663;48.996;8.334;2023-03-01T04:41:18;2.40;56.90
19060;DHT22;9663;48.996;8.334;2023-03-01T04:43:46;1.90;56.90
19060;DHT22;9663;48.996;8.334;2023-03-01T04:46:14;2.10;56.80
19060;DHT22;9663;48.996;8.334;2023-03-01T04:48:43;2.30;57.00
19060;DHT22;9663;48.996;8.334;2023-03-01T04:51:10;1.60;56.80
19060;DHT22;9663;48.996;8.334;2023-03-01T04:53:38;2.20;57.10
19060;DHT22;9663;48.996;8.334;2023-03-01T04:56:05;1.50;56.70
19060;DHT22;9663;48.996;8.334;2023-03-01T04:58:32;1.50;56.80
19060;DHT22;9663;48.996;8.334;2023-03-01T05:00:58;1.60;57.00
19060;DHT22;9663;48.996;8.334;2023-03-01T05:03:24;1.40;57.10
19060;DHT22;9663;48.996;8.334;2023-03-01T05:05:51;1.90;57.20
19060;DHT22;9663;48.996;8.334;2023-03-01T05:08:17;1.50;56.30
19060;DHT22;9663;48.996;8.334;2023-03-01T05:10:45;1.20;57.00
19060;DHT22;9663;48.996;8.334;2023-03-01T05:13:13;1.30;57.10
19060;DHT22;9663;48.996;8.334;2023-03-01T05:15:46;1.80;57.40
19060;DHT22;9663;48.996;8.334;2023-03-01T05:18:14;1.70;57.40
19060;DHT22;9663;48.996;8.334;2023-03-01T05:20:40;1.60;57.20
19060;DHT22;9663;48.996;8.334;2023-03-01T05:23:05;1.70;57.30
19060;DHT22;9663;48.996;8.334;2023-03-01T05:25:33;1.20;57.10
19060;DHT22;9663;48.996;8.334;2023-03-01T05:28:01;1.50;57.30
19060;DHT22;9663;48.996;8.334;2023-03-01T05:30:33;1.30;56.80
19060;DHT22;9663;48.996;8.334;2023-03-01T05:33:00;1.40;56.10
19060;DHT22;9663;48.996;8.334;2023-03-01T05:35:26;1.40;57.30
19060;DHT22;9663;48.996;8.334;2023-03-01T05:37:52;2.10;57.70
19060;DHT22;9663;48.996;8.334;2023-03-01T05:40:20;1.70;56.70
19060;DHT22;9663;48.996;8.334;2023-03-01T05:42:55;2.10;57.20
19060;DHT22;9663;48.996;8.334;2023-03-01T05:45:23;1.60;56.40
19060;DHT22;9663;48.996;8.334;2023-03-01T05:47:51;1.30;57.40
19060;DHT22;9663;48.996;8.334;2023-03-01T05:50:22;2.10;57.90
19060;DHT22;9663;48.996;8.334;2023-03-01T05:53:02;1.20;56.80
19060;DHT22;9663;48.996;8.334;2023-03-01T05:55:31;1.30;57.40
19060;DHT22;9663;48.996;8.334;2023-03-01T05:58:06;1.50;56.10
19060;DHT22;9663;48.996;8.334;2023-03-01T06:00:34;1.60;57.10
19060;DHT22;9663;48.996;8.334;2023-03-01T06:03:01;1.60;57.90
19060;DHT22;9663;48.996;8.334;2023-03-01T06:05:28;1.70;57.70
19060;DHT22;9663;48.996;8.334;2023-03-01T06:07:55;1.40;56.90
19060;DHT22;9663;48.996;8.334;2023-03-01T06:10:23;1.20;57.60
19060;DHT22;9663;48.996;8.334;2023-03-01T06:12:49;1.90;57.40
19060;DHT22;9663;48.996;8.334;2023-03-01T06:15:16;1.60;58.00
19060;DHT22;9663;48.996;8.334;2023-03-01T06:17:44;1.20;57.60
19060;DHT22;9663;48.996;8.334;2023-03-01T06:20:14;1.20;57.40
19060;DHT22;9663;48.996;8.334;2023-03-01T06:22:43;0.90;57.60
19060;DHT22;9663;48.996;8.334;2023-03-01T06:25:10;1.60;57.20
19060;DHT22;9663;48.996;8.334;2023-03-01T06:27:38;1.50;57.80
19060;DHT22;9663;48.996;8.334;2023-03-01T06:30:05;1.70;58.00
19060;DHT22;9663;48.996;8.334;2023-03-01T06:32:33;1.60;57.20
19060;DHT22;9663;48.996;8.334;2023-03-01T06:34:59;1.80;57.50
19060;DHT22;9663;48.996;8.334;2023-03-01T06:37:27;1.70;58.10
19060;DHT22;9663;48.996;8.334;2023-03-01T06:39:53;1.80;58.00
19060;DHT22;9663;48.996;8.334;2023-03-01T06:42:19;1.60;58.00
19060;DHT22;9663;48.996;8.334;2023-03-01T06:44:44;0.40;57.50
19060;DHT22;9663;48.996;8.334;2023-03-01T06:47:11;1.40;58.00
19060;DHT22;9663;48.996;8.334;2023-03-01T06:52:03;1.80;56.50
19060;DHT22;9663;48.996;8.334;2023-03-01T06:54:29;2.00;58.20
19060;DHT22;9663;48.996;8.334;2023-03-01T06:56:54;1.50;57.80
19060;DHT22;9663;48.996;8.334;2023-03-01T06:59:20;1.40;57.70
19060;DHT22;9663;48.996;8.334;2023-03-01T07:01:46;1.90;58.00
19060;DHT22;9663;48.996;8.334;2023-03-01T07:04:13;1.50;57.80
19060;DHT22;9663;48.996;8.334;2023-03-01T07:06:39;1.70;58.00
19060;DHT22;9663;48.996;8.334;2023-03-01T07:09:05;2.10;58.10
19060;DHT22;9663;48.996;8.334;2023-03-01T07:11:30;1.50;57.60
19060;DHT22;9663;48.996;8.334;2023-03-01T07:13:56;1.50;57.60
19060;DHT22;9663;48.996;8.334;2023-03-01T07:16:23;1.90;57.70
19060;DHT22;9663;48.996;8.334;2023-03-01T07:18:49;1.90;57.90
19060;DHT22;9663;48.996;8.334;2023-03-01T07:21:15;2.10;57.70
19060;DHT22;9663;48.996;8.334;2023-03-01T07:23:42;2.00;57.60
19060;DHT22;9663;48.996;8.334;2023-03-01T07:26:08;2.20;57.60
19060;DHT22;9663;48.996;8.334;2023-03-01T07:28:34;2.00;56.90
19060;DHT22;9663;48.996;8.334;2023-03-01T07:31:03;3.40;58.50
19060;DHT22;9663;48.996;8.334;2023-03-01T07:33:30;2.90;57.80
19060;DHT22;9663;48.996;8.334;2023-03-01T07:35:57;2.60;57.50
19060;DHT22;9663;48.996;8.334;2023-03-01T07:38:24;3.30;57.80
19060;DHT22;9663;48.996;8.334;2023-03-01T07:40:51;2.60;57.50
19060;DHT22;9663;48.996;8.334;2023-03-01T07:43:17;2.90;58.10
19060;DHT22;9663;48.996;8.334;2023-03-01T07:45:43;2.80;57.40
19060;DHT22;9663;48.996;8.334;2023-03-01T07:48:09;2.70;56.80
19060;DHT22;9663;48.996;8.334;2023-03-01T07:50:35;3.50;57.40
19060;DHT22;9663;48.996;8.334;2023-03-01T07:53:01;3.20;57.00
19060;DHT22;9663;48.996;8.334;2023-03-01T07:55:27;2.50;57.50
19060;DHT22;9663;48.996;8.334;2023-03-01T07:57:53;3.30;57.10
19060;DHT22;9663;48.996;8.334;2023-03-01T08:00:19;3.60;57.20
19060;DHT22;9663;48.996;8.334;2023-03-01T08:02:45;4.30;57.30
19060;DHT22;9663;48.996;8.334;2023-03-01T08:05:10;3.50;57.50
19060;DHT22;9663;48.996;8.334;2023-03-01T08:07:36;2.80;56.40
19060;DHT22;9663;48.996;8.334;2023-03-01T08:10:02;3.40;56.70
19060;DHT22;9663;48.996;8.334;2023-03-01T08:12:28;4.00;56.80
19060;DHT22;9663;48.996;8.334;2023-03-01T08:14:54;3.70;56.50
19060;DHT22;9663;48.996;8.334;2023-03-01T08:17:20;4.30;56.70
19060;DHT22;9663;48.996;8.334;2023-03-01T08:19:46;4.30;56.80
19060;DHT22;9663;48.996;8.334;2023-03-01T08:22:11;4.30;56.50
19060;DHT22;9663;48.996;8.334;2023-03-01T08:24:37;3.90;56.30
19060;DHT22;9663;48.996;8.334;2023-03-01T08:27:03;3.90;56.00
19060;DHT22;9663;48.996;8.334;2023-03-01T08:29:32;4.80;56.40
19060;DHT22;9663;48.996;8.334;2023-03-01T08:31:59;4.70;56.00
19060;DHT22;9663;48.996;8.334;2023-03-01T08:34:27;4.50;56.00
19060;DHT22;9663;48.996;8.334;2023-03-01T08:36:53;5.50;56.70
19060;DHT22;9663;48.996;8.334;2023-03-01T08:39:19;5.00;55.90
19060;DHT22;9663;48.996;8.334;2023-03-01T08:41:46;5.10;55.70
19060;DHT22;9663;48.996;8.334;2023-03-01T08:44:14;6.00;56.10
19060;DHT22;9663;48.996;8.334;2023-03-01T08:46:42;5.00;55.50
19060;DHT22;9663;48.996;8.334;2023-03-01T08:49:13;4.20;55.20
19060;DHT22;9663;48.996;8.334;2023-03-01T08:51:42;5.40;55.00
19060;DHT22;9663;48.996;8.334;2023-03-01T08:54:14;4.80;54.70
19060;DHT22;9663;48.996;8.334;2023-03-01T08:56:41;5.60;55.00
19060;DHT22;9663;48.996;8.334;2023-03-01T08:59:07;5.60;55.00
19060;DHT22;9663;48.996;8.334;2023-03-01T09:01:35;5.50;54.00
19060;DHT22;9663;48.996;8.334;2023-03-01T09:04:02;5.70;54.90
19060;DHT22;9663;48.996;8.334;2023-03-01T09:06:31;5.30;54.60
19060;DHT22;9663;48.996;8.334;2023-03-01T09:09:02;5.80;54.70
19060;DHT22;9663;48.996;8.334;2023-03-01T09:11:30;6.00;54.70
19060;DHT22;9663;48.996;8.334;2023-03-01T09:13:55;6.20;54.60
19060;DHT22;9663;48.996;8.334;2023-03-01T09:16:22;7.00;54.60
19060;DHT22;9663;48.996;8.334;2023-03-01T09:18:53;6.10;54.10
19060;DHT22;9663;48.996;8.334;2023-03-01T09:21:21;5.90;52.90
19060;DHT22;9663;48.996;8.334;2023-03-01T09:23:48;6.90;54.30
19060;DHT22;9663;48.996;8.334;2023-03-01T09:26:20;6.10;53.90
19060;DHT22;9663;48.996;8.334;2023-03-01T09:28:48;6.90;53.80
19060;DHT22;9663;48.996;8.334;2023-03-01T09:31:17;7.40;54.20
19060;DHT22;9663;48.996;8.334;2023-03-01T09:33:46;6.40;53.60
19060;DHT22;9663;48.996;8.334;2023-03-01T09:36:16;7.00;53.70
19060;DHT22;9663;48.996;8.334;2023-03-01T09:38:43;8.80;54.30
19060;DHT22;9663;48.996;8.334;2023-03-01T09:43:51;10.40;54.70
19060;DHT22;9663;48.996;8.334;2023-03-01T09:46:21;7.50;53.20
19060;DHT22;9663;48.996;8.334;2023-03-01T09:48:52;7.60;53.10
19060;DHT22;9663;48.996;8.334;2023-03-01T09:51:30;7.70;52.80
19060;DHT22;9663;48.996;8.334;2023-03-01T09:53:58;9.10;53.00
19060;DHT22;9663;48.996;8.334;2023-03-01T09:56:44;7.40;51.90
19060;DHT22;9663;48.996;8.334;2023-03-01T10:10:40;8.80;50.20
19060;DHT22;9663;48.996;8.334;2023-03-01T10:16:48;7.30;50.30
19060;DHT22;9663;48.996;8.334;2023-03-01T10:19:23;7.50;50.10
19060;DHT22;9663;48.996;8.334;2023-03-01T10:22:00;8.10;49.70
19060;DHT22;9663;48.996;8.334;2023-03-01T10:24:34;8.60;51.30
19060;DHT22;9663;48.996;8.334;2023-03-01T10:27:25;10.00;51.90
19060;DHT22;9663;48.996;8.334;2023-03-01T10:30:17;8.70;49.80
19060;DHT22;9663;48.996;8.334;2023-03-01T10:32:48;8.50;50.70
19060;DHT22;9663;48.996;8.334;2023-03-01T10:35:21;8.40;51.00
19060;DHT22;9663;48.996;8.334;2023-03-01T10:38:06;9.00;51.00
19060;DHT22;9663;48.996;8.334;2023-03-01T10:40:35;9.40;50.10
19060;DHT22;9663;48.996;8.334;2023-03-01T10:43:03;9.20;51.40
19060;DHT22;9663;48.996;8.334;2023-03-01T10:45:38;9.00;51.10
19060;DHT22;9663;48.996;8.334;2023-03-01T10:50:43;9.40;50.60
19060;DHT22;9663;48.996;8.334;2023-03-01T10:53:25;10.00;51.20
19060;DHT22;9663;48.996;8.334;2023-03-01T10:56:06;9.80;50.60
19060;DHT22;9663;48.996;8.334;2023-03-01T10:59:03;9.70;49.60
19060;DHT22;9663;48.996;8.334;2023-03-01T11:01:34;10.00;49.00
19060;DHT22;9663;48.996;8.334;2023-03-01T11:06:33;10.30;50.00
19060;DHT22;9663;48.996;8.334;2023-03-01T11:09:19;9.80;50.00
19060;DHT22;9663;48.996;8.334;2023-03-01T11:11:46;10.60;49.60
19060;DHT22;9663;48.996;8.334;2023-03-01T11:14:22;9.50;50.10
19060;DHT22;9663;48.996;8.334;2023-03-01T11:17:21;11.50;50.60
19060;DHT22;9663;48.996;8.334;2023-03-01T11:20:16;9.80;48.40
19060;DHT22;9663;48.996;8.334;2023-03-01T11:22:54;11.80;49.30
19060;DHT22;9663;48.996;8.334;2023-03-01T11:25:36;11.20;50.00
19060;DHT22;9663;48.996;8.334;2023-03-01T11:28:06;10.50;49.10
19060;DHT22;9663;48.996;8.334;2023-03-01T11:30:53;10.70;49.70
19060;DHT22;9663;48.996;8.334;2023-03-01T11:33:49;10.20;48.40
19060;DHT22;9663;48.996;8.334;2023-03-01T11:36:36;11.10;48.90
19060;DHT22;9663;48.996;8.334;2023-03-01T11:39:37;11.10;48.30
19060;DHT22;9663;48.996;8.334;2023-03-01T11:42:17;11.40;47.90
19060;DHT22;9663;48.996;8.334;2023-03-01T11:44:54;12.80;48.40
19060;DHT22;9663;48.996;8.334;2023-03-01T11:47:29;13.40;48.50
19060;DHT22;9663;48.996;8.334;2023-03-01T11:50:40;12.80;47.60
19060;DHT22;9663;48.996;8.334;2023-03-01T11:56:22;15.30;45.30
19060;DHT22;9663;48.996;8.334;2023-03-01T11:59:24;15.60;45.70
19060;DHT22;9663;48.996;8.334;2023-03-01T12:13:54;18.10;43.70
19060;DHT22;9663;48.996;8.334;2023-03-01T12:25:51;18.30;41.10
19060;DHT22;9663;48.996;8.334;2023-03-01T12:35:01;19.40;40.00
19060;DHT22;9663;48.996;8.334;2023-03-01T12:37:34;19.80;41.30
19060;DHT22;9663;48.996;8.334;2023-03-01T12:43:03;20.30;40.40
19060;DHT22;9663;48.996;8.334;2023-03-01T12:51:30;21.00;38.30
19060;DHT22;9663;48.996;8.334;2023-03-01T12:53:59;21.00;39.30
19060;DHT22;9663;48.996;8.334;2023-03-01T12:56:34;21.10;38.90
19060;DHT22;9663;48.996;8.334;2023-03-01T13:02:02;21.10;38.40
19060;DHT22;9663;48.996;8.334;2023-03-01T13:07:34;20.70;37.80
19060;DHT22;9663;48.996;8.334;2023-03-01T13:17:50;21.50;38.90
19060;DHT22;9663;48.996;8.334;2023-03-01T13:26:04;21.70;38.30
19060;DHT22;9663;48.996;8.334;2023-03-01T13:31:55;22.00;37.50
19060;DHT22;9663;48.996;8.334;2023-03-01T13:34:01;22.20;37.40
19060;DHT22;9663;48.996;8.334;2023-03-01T13:46:44;22.60;35.00
19060;DHT22;9663;48.996;8.334;2023-03-01T13:49:15;21.50;35.40
19060;DHT22;9663;48.996;8.334;2023-03-01T13:51:47;18.30;33.60
19060;DHT22;9663;48.996;8.334;2023-03-01T13:54:15;19.00;34.80
19060;DHT22;9663;48.996;8.334;2023-03-01T13:56:43;19.10;36.00
19060;DHT22;9663;48.996;8.334;2023-03-01T13:59:18;18.50;36.50
19060;DHT22;9663;48.996;8.334;2023-03-01T14:01:53;17.70;36.80
19060;DHT22;9663;48.996;8.334;2023-03-01T14:04:33;17.20;36.90
19060;DHT22;9663;48.996;8.334;2023-03-01T14:07:28;15.60;37.10
19060;DHT22;9663;48.996;8.334;2023-03-01T14:10:03;16.10;37.60
19060;DHT22;9663;48.996;8.334;2023-03-01T14:15:33;15.30;38.70
19060;DHT22;9663;48.996;8.334;2023-03-01T14:18:18;15.50;40.20
19060;DHT22;9663;48.996;8.334;2023-03-01T14:20:51;14.10;39.30
19060;DHT22;9663;48.996;8.334;2023-03-01T14:23:20;14.00;41.40
19060;DHT22;9663;48.996;8.334;2023-03-01T14:25:49;14.20;41.20
19060;DHT22;9663;48.996;8.334;2023-03-01T14:28:19;16.20;42.40
19060;DHT22;9663;48.996;8.334;2023-03-01T14:30:59;13.40;41.40
19060;DHT22;9663;48.996;8.334;2023-03-01T14:33:53;12.80;40.60
19060;DHT22;9663;48.996;8.334;2023-03-01T14:36:26;12.60;40.80
19060;DHT22;9663;48.996;8.334;2023-03-01T14:38:54;13.40;41.60
19060;DHT22;9663;48.996;8.334;2023-03-01T14:41:22;13.30;42.10
19060;DHT22;9663;48.996;8.334;2023-03-01T14:43:53;13.30;42.00
19060;DHT22;9663;48.996;8.334;2023-03-01T14:46:29;12.80;42.10
19060;DHT22;9663;48.996;8.334;2023-03-01T14:49:03;12.70;42.20
19060;DHT22;9663;48.996;8.334;2023-03-01T14:52:05;13.10;42.40
19060;DHT22;9663;48.996;8.334;2023-03-01T14:54:43;12.90;42.10
19060;DHT22;9663;48.996;8.334;2023-03-01T14:59:47;13.50;43.20
19060;DHT22;9663;48.996;8.334;2023-03-01T15:02:18;14.40;43.80
19060;DHT22;9663;48.996;8.334;2023-03-01T15:04:56;15.20;43.10
19060;DHT22;9663;48.996;8.334;2023-03-01T15:07:35;16.70;42.70
19060;DHT22;9663;48.996;8.334;2023-03-01T15:10:06;16.90;42.00
19060;DHT22;9663;48.996;8.334;2023-03-01T15:12:40;17.50;41.50
19060;DHT22;9663;48.996;8.334;2023-03-01T15:18:00;18.80;39.50
19060;DHT22;9663;48.996;8.334;2023-03-01T15:20:29;18.90;39.20
19060;DHT22;9663;48.996;8.334;2023-03-01T15:22:57;18.50;38.70
19060;DHT22;9663;48.996;8.334;2023-03-01T15:25:27;19.50;38.60
19060;DHT22;9663;48.996;8.334;2023-03-01T15:27:56;19.50;38.70
19060;DHT22;9663;48.996;8.334;2023-03-01T15:30:27;19.80;38.20
19060;DHT22;9663;48.996;8.334;2023-03-01T15:35:50;19.80;36.80
19060;DHT22;9663;48.996;8.334;2023-03-01T15:38:51;20.30;37.40
19060;DHT22;9663;48.996;8.334;2023-03-01T15:41:28;20.90;36.30
19060;DHT22;9663;48.996;8.334;2023-03-01T15:44:36;20.00;35.90
19060;DHT22;9663;48.996;8.334;2023-03-01T15:47:28;20.00;35.60
19060;DHT22;9663;48.996;8.334;2023-03-01T15:49:56;19.80;35.20
19060;DHT22;9663;48.996;8.334;2023-03-01T15:52:32;19.70;36.00
19060;DHT22;9663;48.996;8.334;2023-03-01T15:55:14;19.20;35.20
19060;DHT22;9663;48.996;8.334;2023-03-01T15:57:42;18.60;35.50
19060;DHT22;9663;48.996;8.334;2023-03-01T16:00:12;18.50;36.00
19060;DHT22;9663;48.996;8.334;2023-03-01T16:02:39;18.50;36.30
19060;DHT22;9663;48.996;8.334;2023-03-01T16:05:15;19.30;37.30
19060;DHT22;9663;48.996;8.334;2023-03-01T16:07:48;17.60;36.40
19060;DHT22;9663;48.996;8.334;2023-03-01T16:10:15;17.10;36.50
19060;DHT22;9663;48.996;8.334;2023-03-01T16:12:41;17.60;36.50
19060;DHT22;9663;48.996;8.334;2023-03-01T16:15:23;18.50;37.40
19060;DHT22;9663;48.996;8.334;2023-03-01T16:17:50;16.10;36.10
19060;DHT22;9663;48.996;8.334;2023-03-01T16:20:17;16.00;37.10
19060;DHT22;9663;48.996;8.334;2023-03-01T16:22:44;15.60;37.40
19060;DHT22;9663;48.996;8.334;2023-03-01T16:25:15;15.40;37.50
19060;DHT22;9663;48.996;8.334;2023-03-01T16:27:43;15.20;37.70
19060;DHT22;9663;48.996;8.334;2023-03-01T16:30:11;14.80;37.80
19060;DHT22;9663;48.996;8.334;2023-03-01T16:32:42;14.60;38.00
19060;DHT22;9663;48.996;8.334;2023-03-01T16:35:11;14.30;38.20
19060;DHT22;9663;48.996;8.334;2023-03-01T16:37:38;14.70;39.40
19060;DHT22;9663;48.996;8.334;2023-03-01T16:40:06;15.50;40.10
19060;DHT22;9663;48.996;8.334;2023-03-01T16:42:41;14.00;39.10
19060;DHT22;9663;48.996;8.334;2023-03-01T16:45:07;13.70;39.50
19060;DHT22;9663;48.996;8.334;2023-03-01T16:47:34;13.10;39.30
19060;DHT22;9663;48.996;8.334;2023-03-01T16:50:00;13.00;39.70
19060;DHT22;9663;48.996;8.334;2023-03-01T16:52:27;12.80;40.10
19060;DHT22;9663;48.996;8.334;2023-03-01T16:54:53;12.60;40.20
19060;DHT22;9663;48.996;8.334;2023-03-01T16:57:19;12.10;40.50
19060;DHT22;9663;48.996;8.334;2023-03-01T16:59:45;11.80;41.00
19060;DHT22;9663;48.996;8.334;2023-03-01T17:02:11;13.40;41.90
19060;DHT22;9663;48.996;8.334;2023-03-01T17:04:40;11.90;41.40
19060;DHT22;9663;48.996;8.334;2023-03-01T17:07:06;11.80;41.70
19060;DHT22;9663;48.996;8.334;2023-03-01T17:09:36;11.20;42.30
19060;DHT22;9663;48.996;8.334;2023-03-01T17:12:03;11.00;41.70
19060;DHT22;9663;48.996;8.334;2023-03-01T17:14:30;10.80;42.10
19060;DHT22;9663;48.996;8.334;2023-03-01T17:16:55;11.00;42.40
19060;DHT22;9663;48.996;8.334;2023-03-01T17:19:21;10.50;42.60
19060;DHT22;9663;48.996;8.334;2023-03-01T17:21:47;11.10;43.00
19060;DHT22;9663;48.996;8.334;2023-03-01T17:24:12;11.90;43.60
19060;DHT22;9663;48.996;8.334;2023-03-01T17:26:38;10.30;42.00
19060;DHT22;9663;48.996;8.334;2023-03-01T17:29:05;10.20;43.10
19060;DHT22;9663;48.996;8.334;2023-03-01T17:31:32;10.00;43.00
19060;DHT22;9663;48.996;8.334;2023-03-01T17:33:58;10.00;43.20
19060;DHT22;9663;48.996;8.334;2023-03-01T17:36:24;10.00;43.40
19060;DHT22;9663;48.996;8.334;2023-03-01T17:38:50;9.90;43.60
19060;DHT22;9663;48.996;8.334;2023-03-01T17:41:17;9.10;41.90
19060;DHT22;9663;48.996;8.334;2023-03-01T17:43:47;9.50;43.50
19060;DHT22;9663;48.996;8.334;2023-03-01T17:46:12;10.30;43.90
19060;DHT22;9663;48.996;8.334;2023-03-01T17:48:39;9.70;43.70
19060;DHT22;9663;48.996;8.334;2023-03-01T17:51:09;10.40;44.00
19060;DHT22;9663;48.996;8.334;2023-03-01T17:53:36;9.30;42.60
19060;DHT22;9663;48.996;8.334;2023-03-01T17:56:05;8.80;43.90
19060;DHT22;9663;48.996;8.334;2023-03-01T17:58:31;9.70;44.20
19060;DHT22;9663;48.996;8.334;2023-03-01T18:01:17;9.60;44.40
19060;DHT22;9663;48.996;8.334;2023-03-01T18:03:44;8.90;43.10
19060;DHT22;9663;48.996;8.334;2023-03-01T18:06:16;9.00;44.50
19060;DHT22;9663;48.996;8.334;2023-03-01T18:08:44;8.60;44.10
19060;DHT22;9663;48.996;8.334;2023-03-01T18:11:12;8.90;44.50
19060;DHT22;9663;48.996;8.334;2023-03-01T18:13:38;8.80;44.40